Terminal Aerodrome Forecast
Issued by NWS

Current Version | Previous Version | Text Only | Print | Product List | Glossary On
Versions: 1 2 3 4 5 6 7 8 9 10 11 12
000
FTUS44 KEPZ 202300
TAFLRU
TAF
KLRU 202320Z 2100/2124 27005KT P6SM SCT250
     FM210500 29005KT P6SM FEW150 BKN250
     FM211900 26009G15KT P6SM FEW250=

USA.gov is the U.S. government's official web portal to all federal, state and local government web resources and services.